createdAt,value
2023-02-27T00:02:08.510Z,3.10
2023-02-27T00:04:36.380Z,3.10
2023-02-27T00:07:04.358Z,3.10
2023-02-27T00:09:32.228Z,3.10
2023-02-27T00:12:02.347Z,3.10
2023-02-27T00:14:30.252Z,3.10
2023-02-27T00:16:58.959Z,3.10
2023-02-27T00:19:27.187Z,3.10
2023-02-27T00:21:56.022Z,3.10
2023-02-27T00:27:07.408Z,3.20
2023-02-27T00:29:35.300Z,3.20
2023-02-27T00:32:03.516Z,3.20
2023-02-27T00:34:31.571Z,3.30
2023-02-27T00:36:59.418Z,3.30
2023-02-27T00:39:27.329Z,3.30
2023-02-27T00:41:55.186Z,3.20
2023-02-27T00:44:24.385Z,3.20
2023-02-27T00:46:52.294Z,3.20
2023-02-27T00:49:21.141Z,3.20
2023-02-27T00:51:49.056Z,3.30
2023-02-27T00:54:16.932Z,3.30
2023-02-27T00:56:44.847Z,3.30
2023-02-27T00:59:12.782Z,3.30
2023-02-27T01:01:42.296Z,3.30
2023-02-27T01:04:11.596Z,3.30
2023-02-27T01:06:39.613Z,3.30
2023-02-27T01:09:07.993Z,3.30
2023-02-27T01:11:38.704Z,3.30
2023-02-27T01:14:06.932Z,3.30
2023-02-27T01:16:35.142Z,3.30
2023-02-27T01:19:06.189Z,3.30
2023-02-27T01:21:34.876Z,3.20
2023-02-27T01:24:04.443Z,3.20
2023-02-27T01:26:32.453Z,3.20
2023-02-27T01:29:00.370Z,3.20
2023-02-27T01:31:28.723Z,3.10
2023-02-27T01:33:56.861Z,3.00
2023-02-27T01:36:26.084Z,3.00
2023-02-27T01:38:54.419Z,2.90
2023-02-27T01:41:22.433Z,2.90
2023-02-27T01:43:59.750Z,3.00
2023-02-27T01:46:28.744Z,2.90
2023-02-27T01:49:04.002Z,2.90
2023-02-27T01:51:35.844Z,2.90
2023-02-27T01:54:08.051Z,3.00
2023-02-27T01:56:36.233Z,3.00
2023-02-27T01:59:06.847Z,3.00
2023-02-27T02:04:24.930Z,3.00
2023-02-27T02:07:00.563Z,3.00
2023-02-27T02:09:30.589Z,3.00
2023-02-27T02:12:00.515Z,3.00
2023-02-27T02:14:28.454Z,3.00
2023-02-27T02:17:16.753Z,2.90
2023-02-27T02:20:29.302Z,2.90
2023-02-27T02:23:30.224Z,2.90
2023-02-27T02:26:34.993Z,2.90
2023-02-27T02:29:45.833Z,2.80
2023-02-27T02:32:59.646Z,2.80
2023-02-27T02:35:57.751Z,2.70
2023-02-27T02:39:00.568Z,2.70
2023-02-27T02:41:36.542Z,2.60
2023-02-27T02:44:13.067Z,2.60
2023-02-27T02:46:48.654Z,2.60
2023-02-27T02:49:21.823Z,2.50
2023-02-27T02:51:54.447Z,2.50
2023-02-27T02:54:30.424Z,2.40
2023-02-27T02:57:03.974Z,2.40
2023-02-27T02:59:36.766Z,2.40
2023-02-27T03:02:07.881Z,2.30
2023-02-27T03:04:40.478Z,2.40
2023-02-27T03:07:15.525Z,2.30
2023-02-27T03:09:48.486Z,2.30
2023-02-27T03:12:22.625Z,2.30
2023-02-27T03:14:57.213Z,2.20
2023-02-27T03:17:31.767Z,2.20
2023-02-27T03:20:03.672Z,2.20
2023-02-27T03:22:35.278Z,2.20
2023-02-27T03:25:07.489Z,2.20
2023-02-27T03:27:39.789Z,2.20
2023-02-27T03:30:12.011Z,2.20
2023-02-27T03:32:47.414Z,2.10
2023-02-27T03:35:16.356Z,2.10
2023-02-27T03:37:57.193Z,2.00
2023-02-27T03:40:32.040Z,1.90
2023-02-27T03:43:08.807Z,1.90
2023-02-27T03:45:43.369Z,1.80
2023-02-27T03:48:11.301Z,1.80
2023-02-27T03:50:39.604Z,1.80
2023-02-27T03:53:12.446Z,1.70
2023-02-27T03:55:44.869Z,1.70
2023-02-27T03:58:13.085Z,1.60
2023-02-27T04:00:41.841Z,1.50
2023-02-27T04:03:11.561Z,1.50
2023-02-27T04:05:39.660Z,1.40
2023-02-27T04:08:32.905Z,1.30
2023-02-27T04:11:33.789Z,1.30
2023-02-27T04:14:37.335Z,1.30
2023-02-27T04:17:21.614Z,1.30
2023-02-27T04:20:11.816Z,1.40
2023-02-27T04:22:42.769Z,1.40
2023-02-27T04:25:46.185Z,1.40
2023-02-27T04:28:19.957Z,1.30
2023-02-27T04:30:59.919Z,1.30
2023-02-27T04:33:37.095Z,1.30
2023-02-27T04:36:12.945Z,1.30
2023-02-27T04:38:45.771Z,1.40
2023-02-27T04:41:18.526Z,1.40
2023-02-27T04:43:50.244Z,1.40
2023-02-27T04:46:22.386Z,1.40
2023-02-27T04:48:59.253Z,1.50
2023-02-27T04:51:32.707Z,1.50
2023-02-27T04:54:05.549Z,1.60
2023-02-27T04:56:37.033Z,1.70
2023-02-27T04:59:10.424Z,1.70
2023-02-27T05:01:42.269Z,1.70
2023-02-27T05:04:15.296Z,1.70
2023-02-27T05:06:45.468Z,1.70
2023-02-27T05:09:19.678Z,1.70
2023-02-27T05:11:54.507Z,1.70
2023-02-27T05:14:30.171Z,1.60
2023-02-27T05:17:04.482Z,1.60
2023-02-27T05:19:33.588Z,1.60
2023-02-27T05:22:12.208Z,1.60
2023-02-27T05:24:48.051Z,1.60
2023-02-27T05:27:23.516Z,1.60
2023-02-27T05:29:54.263Z,1.60
2023-02-27T05:32:34.851Z,1.60
2023-02-27T05:35:11.441Z,1.60
2023-02-27T05:37:46.888Z,1.60
2023-02-27T05:40:20.148Z,1.60
2023-02-27T05:42:53.659Z,1.60
2023-02-27T05:45:27.426Z,1.60
2023-02-27T05:48:00.368Z,1.60
2023-02-27T05:50:32.265Z,1.50
2023-02-27T05:53:04.051Z,1.60
2023-02-27T05:55:37.511Z,1.60
2023-02-27T05:58:13.409Z,1.60
2023-02-27T06:00:47.075Z,1.60
2023-02-27T06:03:15.737Z,1.60
2023-02-27T06:05:44.726Z,1.60
2023-02-27T06:08:12.837Z,1.60
2023-02-27T06:10:40.712Z,1.70
2023-02-27T06:13:08.651Z,1.70
2023-02-27T06:15:36.575Z,1.70
2023-02-27T06:18:06.480Z,1.80
2023-02-27T06:20:34.494Z,1.80
2023-02-27T06:23:02.457Z,1.90
2023-02-27T06:25:30.406Z,1.90
2023-02-27T06:27:58.264Z,1.90
2023-02-27T06:30:26.417Z,1.90
2023-02-27T06:32:54.824Z,2.00
2023-02-27T06:35:24.182Z,2.00
2023-02-27T06:37:52.094Z,2.00
2023-02-27T06:40:20.150Z,2.00
2023-02-27T06:42:48.176Z,2.00
2023-02-27T06:45:17.515Z,2.00
2023-02-27T06:47:46.123Z,2.00
2023-02-27T06:50:15.093Z,2.00
2023-02-27T06:52:44.422Z,1.90
2023-02-27T06:55:12.987Z,1.90
2023-02-27T06:57:40.899Z,1.90
2023-02-27T07:00:12.498Z,1.90
2023-02-27T07:02:40.772Z,1.90
2023-02-27T07:05:11.036Z,1.90
2023-02-27T07:07:39.237Z,1.80
2023-02-27T07:10:11.225Z,1.80
2023-02-27T07:12:39.377Z,1.80
2023-02-27T07:15:08.340Z,1.80
2023-02-27T07:17:36.247Z,1.80
2023-02-27T07:20:04.756Z,1.80
2023-02-27T07:22:32.705Z,1.80
2023-02-27T07:25:00.727Z,1.80
2023-02-27T07:27:30.069Z,1.80
2023-02-27T07:29:58.011Z,1.80
2023-02-27T07:32:25.942Z,1.80
2023-02-27T07:34:54.070Z,1.90
2023-02-27T07:37:21.913Z,1.90
2023-02-27T07:39:50.500Z,2.00
2023-02-27T07:42:18.419Z,2.00
2023-02-27T07:44:47.715Z,2.10
2023-02-27T07:47:17.566Z,2.10
2023-02-27T07:49:45.463Z,2.20
2023-02-27T07:52:13.397Z,2.20
2023-02-27T07:54:41.297Z,2.30
2023-02-27T07:57:09.323Z,2.40
2023-02-27T07:59:37.192Z,2.50
2023-02-27T08:02:06.462Z,2.60
2023-02-27T08:04:34.448Z,2.70
2023-02-27T08:07:03.145Z,2.80
2023-02-27T08:09:31.555Z,2.90
2023-02-27T08:11:59.479Z,3.00
2023-02-27T08:14:27.354Z,3.10
2023-02-27T08:16:55.694Z,3.20
2023-02-27T08:19:24.995Z,3.30
2023-02-27T08:21:52.904Z,3.40
2023-02-27T08:24:20.877Z,3.40
2023-02-27T08:26:48.736Z,3.40
2023-02-27T08:29:17.283Z,3.40
2023-02-27T08:31:46.836Z,3.50
2023-02-27T08:34:14.749Z,3.60
2023-02-27T08:36:44.033Z,3.70
2023-02-27T08:39:12.657Z,3.80
2023-02-27T08:41:40.716Z,3.80
2023-02-27T08:44:08.599Z,3.80
2023-02-27T08:46:36.527Z,3.90
2023-02-27T08:49:04.537Z,3.90
2023-02-27T08:51:32.614Z,4.00
2023-02-27T08:54:01.920Z,4.00
2023-02-27T08:56:30.213Z,4.00
2023-02-27T08:58:58.144Z,4.10
2023-02-27T09:01:28.463Z,4.10
2023-02-27T09:03:56.735Z,4.20
2023-02-27T09:06:26.359Z,4.20
2023-02-27T09:08:54.403Z,4.40
2023-02-27T09:11:23.904Z,4.40
2023-02-27T09:13:52.753Z,4.50
2023-02-27T09:16:20.978Z,4.60
2023-02-27T09:18:49.588Z,4.70
2023-02-27T09:21:18.220Z,4.70
2023-02-27T09:23:46.143Z,4.80
2023-02-27T09:26:14.239Z,4.90
2023-02-27T09:28:43.501Z,4.90
2023-02-27T09:31:12.154Z,4.90
2023-02-27T09:33:40.417Z,5.00
2023-02-27T09:36:09.178Z,5.00
2023-02-27T09:38:41.000Z,5.00
2023-02-27T09:41:30.123Z,5.10
2023-02-27T09:44:01.583Z,5.10
2023-02-27T09:46:30.426Z,5.20
2023-02-27T09:49:00.858Z,5.20
2023-02-27T09:51:29.765Z,5.30
2023-02-27T09:54:01.341Z,5.30
2023-02-27T09:56:32.381Z,5.40
2023-02-27T09:59:06.344Z,5.40
2023-02-27T10:01:38.321Z,5.40
2023-02-27T10:04:27.862Z,5.40
2023-02-27T10:07:01.364Z,5.40
2023-02-27T10:09:36.485Z,5.50
2023-02-27T10:12:18.754Z,5.50
2023-02-27T10:14:51.525Z,5.60
2023-02-27T10:17:25.645Z,5.80
2023-02-27T10:19:55.683Z,5.90
2023-02-27T10:22:29.991Z,6.10
2023-02-27T10:25:28.715Z,6.10
2023-02-27T10:28:11.883Z,6.10
2023-02-27T10:33:50.233Z,6.20
2023-02-27T10:36:33.576Z,6.30
2023-02-27T10:39:41.291Z,6.20
2023-02-27T10:42:21.128Z,6.00
2023-02-27T10:45:01.937Z,5.90
2023-02-27T10:47:46.146Z,5.80
2023-02-27T10:50:27.339Z,5.80
2023-02-27T10:53:03.763Z,5.80
2023-02-27T10:55:35.221Z,5.80
2023-02-27T10:58:05.110Z,5.80
2023-02-27T11:00:42.369Z,5.80
2023-02-27T11:03:21.093Z,5.70
2023-02-27T11:05:57.883Z,5.70
2023-02-27T11:08:28.606Z,5.80
2023-02-27T11:11:01.271Z,5.80
2023-02-27T11:13:31.859Z,5.80
2023-02-27T11:16:09.572Z,5.80
2023-02-27T11:18:38.848Z,5.80
2023-02-27T11:21:21.189Z,5.90
2023-02-27T11:23:55.490Z,5.90
2023-02-27T11:26:28.217Z,6.00
2023-02-27T11:29:14.892Z,6.00
2023-02-27T11:31:47.950Z,6.00
2023-02-27T11:34:23.202Z,6.00
2023-02-27T11:36:55.213Z,6.00
2023-02-27T11:39:27.385Z,6.10
2023-02-27T11:41:57.703Z,6.20
2023-02-27T11:44:50.044Z,6.20
2023-02-27T11:47:21.369Z,6.30
2023-02-27T11:50:21.291Z,6.30
2023-02-27T11:52:54.410Z,6.40
2023-02-27T11:55:27.919Z,6.40
2023-02-27T11:58:02.072Z,6.40
2023-02-27T12:00:34.300Z,6.40
2023-02-27T12:03:07.784Z,6.40
2023-02-27T12:05:40.654Z,6.30
2023-02-27T12:08:17.920Z,6.20
2023-02-27T12:10:50.965Z,6.10
2023-02-27T12:13:22.893Z,6.00
2023-02-27T12:15:58.101Z,6.00
2023-02-27T12:18:32.473Z,6.00
2023-02-27T12:21:04.557Z,6.00
2023-02-27T12:23:39.815Z,6.00
2023-02-27T12:26:13.962Z,6.00
2023-02-27T12:28:53.200Z,5.90
2023-02-27T12:31:45.002Z,5.90
2023-02-27T12:34:31.716Z,5.90
2023-02-27T12:37:03.620Z,6.00
2023-02-27T12:39:34.927Z,6.00
2023-02-27T12:42:41.366Z,5.90
2023-02-27T12:45:38.572Z,5.80
2023-02-27T12:48:19.610Z,5.70
2023-02-27T12:50:57.444Z,5.70
2023-02-27T12:53:35.295Z,5.70
2023-02-27T12:56:10.289Z,5.80
2023-02-27T12:58:49.023Z,5.90
2023-02-27T13:01:31.653Z,6.00
2023-02-27T13:04:04.571Z,5.90
2023-02-27T13:06:41.002Z,6.00
2023-02-27T13:09:36.058Z,6.00
2023-02-27T13:12:14.931Z,6.00
2023-02-27T13:14:50.037Z,6.00
2023-02-27T13:17:23.974Z,6.10
2023-02-27T13:20:01.382Z,6.30
2023-02-27T13:22:36.883Z,6.50
2023-02-27T13:25:14.171Z,6.70
2023-02-27T13:27:49.661Z,6.70
2023-02-27T13:30:25.205Z,6.60
2023-02-27T13:33:02.554Z,6.50
2023-02-27T13:35:44.697Z,6.50
2023-02-27T13:38:37.166Z,6.50
2023-02-27T13:41:39.195Z,6.40
2023-02-27T13:44:50.752Z,6.50
2023-02-27T13:47:52.265Z,6.60
2023-02-27T13:50:53.569Z,6.70
2023-02-27T13:53:31.717Z,6.80
2023-02-27T13:56:24.481Z,6.70
2023-02-27T13:59:03.527Z,6.70
2023-02-27T14:01:32.132Z,6.60
2023-02-27T14:04:08.530Z,6.50
2023-02-27T14:06:47.248Z,6.60
2023-02-27T14:09:24.065Z,6.70
2023-02-27T14:11:59.828Z,6.70
2023-02-27T14:14:51.371Z,6.80
2023-02-27T14:17:44.930Z,6.70
2023-02-27T14:20:41.081Z,6.70
2023-02-27T14:23:21.540Z,6.70
2023-02-27T14:25:54.213Z,6.60
2023-02-27T14:28:27.371Z,6.70
2023-02-27T14:31:08.482Z,6.70
2023-02-27T14:33:44.077Z,6.70
2023-02-27T14:36:20.686Z,6.50
2023-02-27T14:38:52.925Z,6.50
2023-02-27T14:42:02.281Z,6.50
2023-02-27T14:44:40.169Z,6.70
2023-02-27T14:47:14.581Z,6.90
2023-02-27T14:49:48.485Z,7.10
2023-02-27T14:52:22.738Z,7.20
2023-02-27T14:54:53.490Z,7.10
2023-02-27T14:57:26.989Z,7.10
2023-02-27T14:59:56.373Z,7.10
2023-02-27T15:02:28.705Z,7.00
2023-02-27T15:05:16.958Z,6.90
2023-02-27T15:07:55.764Z,6.90
2023-02-27T15:10:33.237Z,6.90
2023-02-27T15:13:02.566Z,6.80
2023-02-27T15:15:32.740Z,6.80
2023-02-27T15:18:02.756Z,6.80
2023-02-27T15:20:38.318Z,6.80
2023-02-27T15:23:34.546Z,6.90
2023-02-27T15:26:03.082Z,6.90
2023-02-27T15:28:38.500Z,6.80
2023-02-27T15:31:18.967Z,6.80
2023-02-27T15:33:47.696Z,6.80
2023-02-27T15:39:19.120Z,6.80
2023-02-27T15:41:49.136Z,6.90
2023-02-27T15:44:19.010Z,6.90
2023-02-27T15:46:48.223Z,6.90
2023-02-27T15:49:21.196Z,6.90
2023-02-27T15:51:56.348Z,6.90
2023-02-27T15:54:26.022Z,6.80
2023-02-27T15:56:54.770Z,6.80
2023-02-27T15:59:28.262Z,6.80
2023-02-27T16:01:56.267Z,6.70
2023-02-27T16:04:26.570Z,6.70
2023-02-27T16:07:02.461Z,6.60
2023-02-27T16:09:35.540Z,6.60
2023-02-27T16:12:33.111Z,6.50
2023-02-27T16:15:26.939Z,6.60
2023-02-27T16:18:08.419Z,6.60
2023-02-27T16:20:43.095Z,6.60
2023-02-27T16:23:21.423Z,6.60
2023-02-27T16:26:06.757Z,6.60
2023-02-27T16:28:36.388Z,6.60
2023-02-27T16:31:04.632Z,6.50
2023-02-27T16:33:40.337Z,6.50
2023-02-27T16:36:19.959Z,6.50
2023-02-27T16:38:48.195Z,6.50
2023-02-27T16:41:20.001Z,6.50
2023-02-27T16:43:51.661Z,6.40
2023-02-27T16:46:21.893Z,6.40
2023-02-27T16:48:57.150Z,6.40
2023-02-27T16:51:29.138Z,6.40
2023-02-27T16:53:58.807Z,6.40
2023-02-27T16:56:38.053Z,6.30
2023-02-27T16:59:07.299Z,6.20
2023-02-27T17:01:36.358Z,6.20
2023-02-27T17:04:10.897Z,6.20
2023-02-27T17:06:47.775Z,6.10
2023-02-27T17:09:15.841Z,6.10
2023-02-27T17:11:45.185Z,6.10
2023-02-27T17:14:13.214Z,6.00
2023-02-27T17:16:41.165Z,6.00
2023-02-27T17:19:09.357Z,5.90
2023-02-27T17:21:37.416Z,5.90
2023-02-27T17:24:06.202Z,5.80
2023-02-27T17:26:34.247Z,5.70
2023-02-27T17:29:03.716Z,5.60
2023-02-27T17:31:31.716Z,5.60
2023-02-27T17:33:59.692Z,5.50
2023-02-27T17:36:27.830Z,5.50
2023-02-27T17:38:57.143Z,5.50
2023-02-27T17:41:25.615Z,5.40
2023-02-27T17:43:55.483Z,5.40
2023-02-27T17:46:26.638Z,5.30
2023-02-27T17:48:56.485Z,5.30
2023-02-27T17:51:25.231Z,5.20
2023-02-27T17:53:54.178Z,5.20
2023-02-27T17:56:23.324Z,5.10
2023-02-27T17:58:52.686Z,5.10
2023-02-27T18:01:26.401Z,5.00
2023-02-27T18:03:58.296Z,5.00
2023-02-27T18:06:29.535Z,5.00
2023-02-27T18:09:02.286Z,5.00
2023-02-27T18:11:31.755Z,5.00
2023-02-27T18:14:00.913Z,5.00
2023-02-27T18:16:30.538Z,4.90
2023-02-27T18:19:04.064Z,4.90
2023-02-27T18:21:38.924Z,4.80
2023-02-27T18:27:13.822Z,4.70
2023-02-27T18:29:47.120Z,4.70
2023-02-27T18:32:16.066Z,4.60
2023-02-27T18:34:46.106Z,4.60
2023-02-27T18:37:15.208Z,4.60
2023-02-27T18:39:43.774Z,4.60
2023-02-27T18:42:11.889Z,4.60
2023-02-27T18:44:41.372Z,4.60
2023-02-27T18:47:09.724Z,4.60
2023-02-27T18:49:37.680Z,4.60
2023-02-27T18:52:07.225Z,4.60
2023-02-27T18:54:36.104Z,4.60
2023-02-27T18:57:05.977Z,4.50
2023-02-27T18:59:33.988Z,4.50
2023-02-27T19:02:02.057Z,4.50
2023-02-27T19:04:33.139Z,4.50
2023-02-27T19:07:01.162Z,4.40
2023-02-27T19:09:32.670Z,4.40
2023-02-27T19:12:01.486Z,4.40
2023-02-27T19:14:29.437Z,4.50
2023-02-27T19:17:00.282Z,4.60
2023-02-27T19:19:28.917Z,4.50
2023-02-27T19:21:57.046Z,4.50
2023-02-27T19:24:25.413Z,4.50
2023-02-27T19:26:54.676Z,4.40
2023-02-27T19:29:22.644Z,4.40
2023-02-27T19:31:50.707Z,4.40
2023-02-27T19:34:18.834Z,4.30
2023-02-27T19:36:46.881Z,4.30
2023-02-27T19:39:14.891Z,4.30
2023-02-27T19:41:42.912Z,4.20
2023-02-27T19:44:12.515Z,4.20
2023-02-27T19:46:41.383Z,4.10
2023-02-27T19:49:09.641Z,4.10
2023-02-27T19:51:38.727Z,4.10
2023-02-27T19:54:07.231Z,4.00
2023-02-27T19:56:35.231Z,4.00
2023-02-27T19:59:03.191Z,4.00
2023-02-27T20:01:34.276Z,4.00
2023-02-27T20:04:03.944Z,4.00
2023-02-27T20:06:42.143Z,3.90
2023-02-27T20:09:15.866Z,3.90
2023-02-27T20:11:44.893Z,3.90
2023-02-27T20:14:17.394Z,3.80
2023-02-27T20:16:49.307Z,3.80
2023-02-27T20:19:20.156Z,3.80
2023-02-27T20:21:48.723Z,3.80
2023-02-27T20:24:21.757Z,3.80
2023-02-27T20:26:54.380Z,3.80
2023-02-27T20:29:26.409Z,3.80
2023-02-27T20:31:59.677Z,3.80
2023-02-27T20:34:28.745Z,3.80
2023-02-27T20:37:00.472Z,3.80
2023-02-27T20:39:30.337Z,3.80
2023-02-27T20:41:58.433Z,3.80
2023-02-27T20:44:26.895Z,3.80
2023-02-27T20:46:56.941Z,3.80
2023-02-27T20:49:26.029Z,3.80
2023-02-27T20:51:54.078Z,3.80
2023-02-27T20:54:22.578Z,3.70
2023-02-27T20:56:53.811Z,3.80
2023-02-27T20:59:23.448Z,3.80
2023-02-27T21:01:53.192Z,3.80
2023-02-27T21:04:48.275Z,3.90
2023-02-27T21:07:32.460Z,3.90
2023-02-27T21:10:01.246Z,3.90
2023-02-27T21:12:29.839Z,3.80
2023-02-27T21:14:59.885Z,3.80
2023-02-27T21:17:33.203Z,3.80
2023-02-27T21:20:08.840Z,3.80
2023-02-27T21:22:40.283Z,3.80
2023-02-27T21:25:13.327Z,3.80
2023-02-27T21:27:47.389Z,3.90
2023-02-27T21:30:16.276Z,3.90
2023-02-27T21:32:44.251Z,3.90
2023-02-27T21:35:19.312Z,3.90
2023-02-27T21:37:50.156Z,3.90
2023-02-27T21:40:19.502Z,3.90
2023-02-27T21:42:53.991Z,3.90
2023-02-27T21:45:24.876Z,3.80
2023-02-27T21:47:52.806Z,3.80
2023-02-27T21:50:23.087Z,3.90
2023-02-27T21:52:52.902Z,3.80
2023-02-27T21:55:21.028Z,3.70
2023-02-27T21:57:49.916Z,3.60
2023-02-27T22:00:22.417Z,3.60
2023-02-27T22:02:50.388Z,3.50
2023-02-27T22:05:18.433Z,3.50
2023-02-27T22:07:52.035Z,3.50
2023-02-27T22:10:26.134Z,3.50
2023-02-27T22:12:54.040Z,3.50
2023-02-27T22:15:21.940Z,3.60
2023-02-27T22:17:52.122Z,3.60
2023-02-27T22:20:20.240Z,3.60
2023-02-27T22:22:49.574Z,3.50
2023-02-27T22:25:17.720Z,3.50
2023-02-27T22:27:45.911Z,3.60
2023-02-27T22:30:14.736Z,3.50
2023-02-27T22:32:43.125Z,3.50
2023-02-27T22:35:11.074Z,3.50
2023-02-27T22:37:39.078Z,3.50
2023-02-27T22:40:10.135Z,3.50
2023-02-27T22:42:38.044Z,3.50
2023-02-27T22:45:19.263Z,3.60
2023-02-27T22:47:47.756Z,3.60
2023-02-27T22:50:17.517Z,3.70
2023-02-27T22:52:45.470Z,3.70
2023-02-27T22:55:17.076Z,3.70
2023-02-27T22:57:51.356Z,3.70
2023-02-27T23:00:20.515Z,3.70
2023-02-27T23:02:48.772Z,3.80
2023-02-27T23:05:17.729Z,3.80
2023-02-27T23:07:47.137Z,3.90
2023-02-27T23:10:17.890Z,3.90
2023-02-27T23:12:45.855Z,3.90
2023-02-27T23:15:15.333Z,4.00
2023-02-27T23:17:57.837Z,4.00
2023-02-27T23:20:27.938Z,4.00
2023-02-27T23:22:59.565Z,4.10
2023-02-27T23:25:30.281Z,4.10
2023-02-27T23:28:02.258Z,4.00
2023-02-27T23:30:33.476Z,4.00
2023-02-27T23:33:01.420Z,4.00
2023-02-27T23:35:33.190Z,4.00
2023-02-27T23:38:09.912Z,4.00
2023-02-27T23:40:40.630Z,4.00
2023-02-27T23:43:09.338Z,4.00
2023-02-27T23:45:37.749Z,4.00
2023-02-27T23:48:08.614Z,3.90
2023-02-27T23:50:41.131Z,3.90
2023-02-27T23:53:13.628Z,3.80
2023-02-27T23:55:43.920Z,3.80
2023-02-27T23:58:15.518Z,3.80
